Details From EGTE - Exeter
To EGPH - Edinburgh
Flight Number -
Tags Generated
Created
Modified
Stats Distance 313 nm / 579 km
Max Altitude 0 ft / 0 m
Waypoints 4
Social Downloads 18
Likes 0
Share VATSIM

Download

Looking for another format? Having issues loading an existing format? Contact us
Advertisement - Login to hide

Notes

Generated

Route

EGTE BAROS TLA EGPH

ID Type Via Altitude Latitude Longitude Leg Dist Tot Dist Heading (true) Name
O EGTE APT - 0 ft / 0 m 50.73851˚ -3.42704˚ - 0 nm - -
BAROS FIX - 0 ft / 0 m 53.40611˚ -3.44528˚ 160 nm 160 nm 360° / 360° -
TLA VOR - 0 ft / 0 m 55.49917˚ -3.35278˚ 125 nm 285 nm 1° / 2° TALLA VOR-DME
O EGPH APT - 0 ft / 0 m 55.94677˚ -3.35601˚ 26 nm 312 nm 360° / 360° Edinburgh

Altitude Profile

Advertisement - Login to hide

Weather


0- 5 10 15 20 25 30 35+ Temperature / ° C

Clouds and Precipitation
Forecast for 2017-12-14 00:00 UTC. Updated an hour ago

Ground ~20,000 ft ~40,000 ft Winds

EGTE

Details ICAO EGTE (EXT)
Name Exeter
Region United Kingdom
Timezone Europe/London (UTC+0.0)
Stats Elevation 102 ft / 31 m (AMSL)
Location 50.734260° -3.414000°
Runways 1
Magnetic Variation 1.514° W

METAR

EGTE 140020Z 28013KT 9999 -SHRA FEW012 SCT040 05/02 Q0998

Decode

TAF

Not found

Departure Runways

ID Width Length Bearing (true) Bearing (mag) Surface Threshold Offset Overrun Length
08 151 ft / 46 m 6,666 ft / 2,032 m 76.09° 77.60° Asphalt 0 ft / 0 m 0 ft / 0 m
26 151 ft / 46 m 6,666 ft / 2,032 m 256.11° 257.62° Asphalt 0 ft / 0 m 0 ft / 0 m

EGPH

Details ICAO EGPH (EDI)
Name Edinburgh
Region United Kingdom
Timezone Europe/London (UTC+0.0)
Stats Elevation 135 ft / 41 m (AMSL)
Location 55.948685° -3.359718°
Runways 2
Magnetic Variation 2.299° W

METAR

EGPH 140020Z 24012KT 9999 FEW012 01/M01 Q0982

Decode

TAF

TAF EGPH 132258Z 1400/1424 24009KT 9999 SCT025 TEMPO 1406/1422 6000 SHRA -SHRASN BKN008 PROB30 TEMPO 1414/1422 3000 SHRASN

Decode

Destination Runways

ID Width Length Bearing (true) Bearing (mag) Surface Threshold Offset Overrun Length
06 144 ft / 44 m 8,366 ft / 2,550 m 58.80° 61.10° Asphalt 705 ft / 215 m 200 ft / 61 m
12 151 ft / 46 m 5,878 ft / 1,792 m 118.67° 120.97° Asphalt 0 ft / 0 m 0 ft / 0 m
24 144 ft / 44 m 8,366 ft / 2,550 m 238.83° 241.13° Asphalt 679 ft / 207 m 207 ft / 63 m
30 151 ft / 46 m 5,878 ft / 1,792 m 298.69° 300.99° Asphalt 194 ft / 59 m 253 ft / 77 m

Approach Navaids

Runway Type Ident Frequency Range Bearing (true) Bearing (mag) Slope Elevation
06 Localiser IVG 108.90 MHz 18 nm / 33 km 58.83° 61.13° - 110 ft / 34 m (AMSL)
06 Glidescope IVG 108.90 MHz 10 nm / 19 km 58.81° 61.11° 3.00° 135 ft / 41 m (AMSL)
06 DME IVG 108.90 MHz 18 nm / 33 km - - - 123 ft / 37 m (AMSL)
24 Localiser ITH 108.90 MHz 18 nm / 33 km 238.79° 241.09° - 110 ft / 34 m (AMSL)
24 Glidescope ITH 108.90 MHz 10 nm / 19 km 238.81° 241.11° 3.00° 135 ft / 41 m (AMSL)
24 DME ITH 108.90 MHz 18 nm / 33 km - - - 123 ft / 37 m (AMSL)

Popular Alternatives